createdAt,value
2019-05-28T00:01:30.485Z,8.90
2019-05-28T00:03:59.213Z,8.90
2019-05-28T00:06:27.902Z,8.90
2019-05-28T00:08:56.594Z,8.90
2019-05-28T00:11:25.307Z,8.90
2019-05-28T00:13:55.641Z,8.90
2019-05-28T00:16:24.358Z,8.90
2019-05-28T00:18:53.059Z,8.90
2019-05-28T00:21:21.760Z,8.90
2019-05-28T00:23:50.482Z,8.90
2019-05-28T00:26:19.187Z,8.80
2019-05-28T00:28:47.890Z,8.80
2019-05-28T00:31:16.598Z,8.90
2019-05-28T00:33:45.309Z,8.80
2019-05-28T00:36:14.013Z,8.80
2019-05-28T00:38:42.713Z,8.80
2019-05-28T00:41:11.428Z,8.80
2019-05-28T00:43:40.124Z,8.80
2019-05-28T00:46:08.941Z,8.80
2019-05-28T00:48:37.653Z,8.90
2019-05-28T00:51:06.370Z,8.90
2019-05-28T00:53:35.057Z,8.90
2019-05-28T00:56:03.977Z,8.90
2019-05-28T00:58:33.582Z,8.90
2019-05-28T01:01:02.296Z,8.90
2019-05-28T01:03:31.025Z,8.90
2019-05-28T01:05:59.713Z,8.90
2019-05-28T01:08:28.465Z,8.90
2019-05-28T01:10:57.174Z,8.90
2019-05-28T01:13:25.945Z,8.90
2019-05-28T01:15:54.656Z,8.90
2019-05-28T01:18:23.356Z,8.90
2019-05-28T01:20:52.074Z,9.00
2019-05-28T01:23:20.788Z,9.00
2019-05-28T01:25:49.504Z,8.90
2019-05-28T01:28:18.224Z,8.90
2019-05-28T01:30:56.124Z,9.00
2019-05-28T01:33:17.305Z,9.00
2019-05-28T01:35:45.991Z,8.90
2019-05-28T01:38:14.734Z,8.90
2019-05-28T01:40:43.425Z,9.00
2019-05-28T01:43:12.124Z,9.00
2019-05-28T01:45:40.843Z,9.00
2019-05-28T01:48:09.544Z,9.10
2019-05-28T01:50:38.260Z,9.10
2019-05-28T01:53:06.964Z,9.10
2019-05-28T01:55:35.692Z,9.10
2019-05-28T01:58:04.407Z,9.10
2019-05-28T02:00:33.122Z,9.20
2019-05-28T02:03:01.821Z,9.30
2019-05-28T02:05:30.585Z,9.30
2019-05-28T02:07:59.371Z,9.30
2019-05-28T02:10:28.069Z,9.20
2019-05-28T02:12:56.772Z,9.20
2019-05-28T02:15:25.786Z,9.30
2019-05-28T02:17:54.498Z,9.30
2019-05-28T02:20:23.224Z,9.30
2019-05-28T02:22:51.932Z,9.40
2019-05-28T02:25:20.624Z,9.30
2019-05-28T02:27:49.334Z,9.40
2019-05-28T02:30:18.825Z,9.40
2019-05-28T02:32:47.542Z,9.40
2019-05-28T02:35:16.640Z,9.40
2019-05-28T02:37:45.417Z,9.40
2019-05-28T02:40:14.692Z,9.40
2019-05-28T02:42:43.479Z,9.40
2019-05-28T02:45:15.132Z,9.40
2019-05-28T02:47:43.857Z,9.40
2019-05-28T02:50:13.261Z,9.50
2019-05-28T02:52:42.866Z,9.40
2019-05-28T02:55:12.332Z,9.40
2019-05-28T02:57:42.764Z,9.40
2019-05-28T03:00:16.267Z,9.40
2019-05-28T03:02:50.293Z,9.40
2019-05-28T03:05:19.291Z,9.40
2019-05-28T03:07:49.878Z,9.40
2019-05-28T03:10:21.596Z,9.50
2019-05-28T03:12:50.320Z,9.40
2019-05-28T03:15:19.025Z,9.50
2019-05-28T03:17:48.942Z,9.50
2019-05-28T03:20:18.058Z,9.50
2019-05-28T03:22:47.781Z,9.40
2019-05-28T03:25:18.225Z,9.40
2019-05-28T03:27:46.925Z,9.40
2019-05-28T03:30:15.735Z,9.50
2019-05-28T03:32:44.438Z,9.50
2019-05-28T03:35:13.150Z,9.50
2019-05-28T03:37:44.148Z,9.50
2019-05-28T03:40:13.660Z,9.50
2019-05-28T03:42:42.364Z,9.60
2019-05-28T03:45:11.084Z,9.60
2019-05-28T03:47:39.786Z,9.60
2019-05-28T03:50:08.685Z,9.70
2019-05-28T03:52:37.398Z,9.70
2019-05-28T03:55:08.800Z,9.70
2019-05-28T03:57:37.520Z,9.70
2019-05-28T04:00:06.418Z,9.80
2019-05-28T04:02:35.133Z,9.80
2019-05-28T04:05:04.324Z,9.80
2019-05-28T04:07:33.041Z,9.90
2019-05-28T04:10:01.773Z,9.90
2019-05-28T04:12:30.445Z,9.90
2019-05-28T04:14:59.160Z,9.70
2019-05-28T04:17:27.859Z,9.70
2019-05-28T04:19:56.567Z,9.70
2019-05-28T04:22:25.283Z,9.80
2019-05-28T04:24:53.969Z,9.70
2019-05-28T04:27:22.690Z,9.70
2019-05-28T04:29:51.657Z,9.70
2019-05-28T04:32:20.417Z,9.70
2019-05-28T04:34:49.105Z,9.70
2019-05-28T04:37:17.810Z,9.70
2019-05-28T04:39:46.524Z,9.70
2019-05-28T04:42:15.222Z,9.70
2019-05-28T04:44:43.961Z,9.80
2019-05-28T04:47:12.668Z,9.90
2019-05-28T04:49:41.369Z,10.00
2019-05-28T04:52:10.094Z,10.10
2019-05-28T04:54:38.789Z,10.20
2019-05-28T04:57:07.525Z,10.20
2019-05-28T04:59:36.209Z,10.30
2019-05-28T05:02:05.632Z,10.30
2019-05-28T05:04:34.330Z,10.40
2019-05-28T05:07:03.046Z,10.40
2019-05-28T05:09:31.757Z,10.50
2019-05-28T05:12:00.461Z,10.70
2019-05-28T05:14:29.217Z,11.10
2019-05-28T05:16:57.886Z,11.20
2019-05-28T05:19:26.592Z,11.50
2019-05-28T05:21:55.290Z,11.50
2019-05-28T05:24:24.059Z,11.60
2019-05-28T05:26:53.138Z,11.60
2019-05-28T05:29:21.949Z,11.70
2019-05-28T05:31:50.671Z,11.80
2019-05-28T05:34:19.366Z,11.60
2019-05-28T05:36:48.085Z,11.50
2019-05-28T05:39:16.776Z,11.60
2019-05-28T05:41:45.498Z,11.90
2019-05-28T05:44:14.223Z,12.20
2019-05-28T05:46:42.916Z,12.50
2019-05-28T05:49:11.653Z,12.60
2019-05-28T05:51:40.332Z,12.50
2019-05-28T05:54:09.053Z,12.30
2019-05-28T05:56:37.780Z,12.30
2019-05-28T05:59:06.473Z,12.30
2019-05-28T06:01:35.186Z,12.30
2019-05-28T06:04:03.897Z,12.20
2019-05-28T06:06:32.594Z,12.20
2019-05-28T06:09:01.308Z,12.30
2019-05-28T06:11:29.997Z,12.30
2019-05-28T06:13:58.712Z,12.40
2019-05-28T06:16:27.432Z,12.10
2019-05-28T06:18:56.197Z,12.00
2019-05-28T06:21:24.894Z,12.00
2019-05-28T06:23:53.611Z,11.80
2019-05-28T06:26:22.319Z,12.00
2019-05-28T06:28:51.023Z,12.20
2019-05-28T06:31:19.738Z,12.30
2019-05-28T06:33:56.929Z,12.40
2019-05-28T06:36:18.903Z,12.40
2019-05-28T06:38:47.615Z,12.50
2019-05-28T06:41:16.297Z,12.70
2019-05-28T06:43:45.037Z,12.80
2019-05-28T06:46:13.753Z,12.70
2019-05-28T06:48:42.446Z,12.50
2019-05-28T06:51:11.171Z,12.30
2019-05-28T06:53:39.870Z,12.00
2019-05-28T06:56:08.572Z,11.90
2019-05-28T06:58:39.772Z,11.70
2019-05-28T07:01:07.696Z,11.60
2019-05-28T07:03:36.679Z,11.40
2019-05-28T07:06:07.637Z,11.40
2019-05-28T07:08:35.732Z,11.30
2019-05-28T07:11:04.619Z,11.10
2019-05-28T07:13:33.327Z,11.00
2019-05-28T07:16:02.041Z,10.90
2019-05-28T07:18:30.741Z,10.90
2019-05-28T07:20:59.549Z,10.90
2019-05-28T07:23:28.256Z,11.00
2019-05-28T07:25:56.965Z,11.00
2019-05-28T07:28:25.675Z,11.10
2019-05-28T07:30:54.379Z,11.30
2019-05-28T07:33:23.089Z,11.60
2019-05-28T07:35:51.799Z,11.90
2019-05-28T07:38:20.521Z,12.00
2019-05-28T07:40:49.225Z,12.00
2019-05-28T07:43:17.937Z,12.10
2019-05-28T07:45:46.662Z,12.40
2019-05-28T07:48:15.381Z,12.80
2019-05-28T07:50:44.099Z,12.90
2019-05-28T07:53:12.844Z,12.90
2019-05-28T07:55:41.509Z,12.80
2019-05-28T07:58:10.223Z,13.10
2019-05-28T08:00:41.399Z,13.70
2019-05-28T08:03:10.201Z,14.30
2019-05-28T08:05:39.006Z,14.00
2019-05-28T08:08:08.920Z,13.90
2019-05-28T08:10:37.632Z,13.80
2019-05-28T08:13:09.261Z,14.10
2019-05-28T08:15:37.977Z,14.10
2019-05-28T08:18:06.690Z,13.70
2019-05-28T08:20:35.405Z,13.50
2019-05-28T08:23:04.120Z,13.20
2019-05-28T08:25:46.095Z,13.00
2019-05-28T08:28:18.589Z,12.90
2019-05-28T08:30:33.674Z,12.90
2019-05-28T08:33:02.425Z,13.00
2019-05-28T08:35:31.108Z,13.40
2019-05-28T08:37:59.825Z,13.80
2019-05-28T08:40:28.727Z,13.90
2019-05-28T08:42:57.600Z,14.30
2019-05-28T08:45:26.550Z,14.40
2019-05-28T08:47:55.255Z,14.90
2019-05-28T08:50:34.039Z,15.50
2019-05-28T08:52:54.328Z,15.80
2019-05-28T08:55:23.060Z,15.80
2019-05-28T08:57:51.777Z,15.10
2019-05-28T09:00:23.428Z,14.80
2019-05-28T09:02:52.149Z,14.70
2019-05-28T09:05:26.256Z,14.40
2019-05-28T09:07:51.205Z,14.60
2019-05-28T09:10:19.999Z,15.00
2019-05-28T09:12:48.769Z,14.70
2019-05-28T09:15:17.433Z,14.60
2019-05-28T09:17:46.137Z,14.80
2019-05-28T09:20:15.275Z,14.90
2019-05-28T09:22:43.985Z,14.90
2019-05-28T09:25:12.685Z,14.70
2019-05-28T09:27:41.396Z,14.10
2019-05-28T09:30:11.004Z,13.70
2019-05-28T09:32:39.809Z,13.80
2019-05-28T09:35:09.176Z,13.70
2019-05-28T09:37:37.953Z,13.30
2019-05-28T09:40:07.454Z,13.30
2019-05-28T09:42:36.242Z,13.40
2019-05-28T09:45:21.809Z,13.50
2019-05-28T09:47:38.275Z,13.50
2019-05-28T09:50:21.188Z,13.40
2019-05-28T09:52:53.023Z,13.40
2019-05-28T09:55:10.112Z,13.50
2019-05-28T09:57:46.840Z,13.40
2019-05-28T10:00:15.333Z,13.20
2019-05-28T10:02:44.298Z,13.20
2019-05-28T10:05:13.287Z,13.40
2019-05-28T10:07:42.009Z,13.50
2019-05-28T10:10:10.726Z,13.60
2019-05-28T10:12:39.436Z,14.10
2019-05-28T10:15:09.256Z,14.40
2019-05-28T10:17:37.964Z,15.10
2019-05-28T10:20:07.585Z,15.80
2019-05-28T10:22:36.377Z,17.20
2019-05-28T10:25:10.292Z,19.20
2019-05-28T10:27:39.012Z,19.30
2019-05-28T10:30:09.599Z,18.00
2019-05-28T10:32:38.308Z,16.60
2019-05-28T10:35:08.127Z,15.80
2019-05-28T10:37:36.835Z,14.80
2019-05-28T10:40:07.661Z,14.40
2019-05-28T10:42:36.371Z,14.10
2019-05-28T10:45:10.380Z,13.90
2019-05-28T10:47:39.099Z,14.00
2019-05-28T10:50:08.204Z,14.10
2019-05-28T10:52:36.951Z,14.10
2019-05-28T10:55:07.662Z,14.50
2019-05-28T10:57:36.409Z,15.10
2019-05-28T11:00:08.953Z,15.60
2019-05-28T11:02:37.607Z,16.10
2019-05-28T11:05:08.785Z,16.40
2019-05-28T11:07:37.564Z,16.60
2019-05-28T11:10:22.995Z,16.20
2019-05-28T11:12:40.288Z,15.80
2019-05-28T11:15:10.492Z,15.50
2019-05-28T11:17:39.200Z,15.10
2019-05-28T11:20:10.181Z,15.00
2019-05-28T11:22:38.896Z,14.90
2019-05-28T11:25:09.011Z,14.50
2019-05-28T11:27:37.790Z,14.70
2019-05-28T11:30:11.181Z,15.10
2019-05-28T11:32:39.889Z,15.80
2019-05-28T11:35:09.704Z,16.20
2019-05-28T11:37:38.409Z,16.60
2019-05-28T11:40:11.016Z,16.60
2019-05-28T11:42:40.328Z,16.80
2019-05-28T11:45:10.982Z,17.40
2019-05-28T11:47:39.932Z,17.60
2019-05-28T11:50:11.913Z,17.50
2019-05-28T11:52:40.688Z,17.00
2019-05-28T11:55:14.134Z,16.60
2019-05-28T11:57:42.912Z,16.30
2019-05-28T12:00:12.614Z,15.90
2019-05-28T12:02:41.376Z,15.50
2019-05-28T12:05:10.749Z,14.90
2019-05-28T12:07:39.466Z,14.20
2019-05-28T12:10:08.922Z,13.90
2019-05-28T12:12:38.972Z,13.60
2019-05-28T12:15:10.483Z,13.30
2019-05-28T12:17:43.318Z,13.10
2019-05-28T12:20:12.555Z,13.00
2019-05-28T12:22:41.944Z,13.20
2019-05-28T12:25:11.367Z,13.30
2019-05-28T12:27:40.077Z,13.50
2019-05-28T12:30:10.490Z,13.70
2019-05-28T12:32:39.193Z,13.90
2019-05-28T12:35:26.543Z,14.00
2019-05-28T12:37:47.754Z,13.90
2019-05-28T12:40:09.406Z,13.90
2019-05-28T12:42:38.117Z,13.80
2019-05-28T12:45:10.352Z,13.90
2019-05-28T12:47:39.165Z,13.50
2019-05-28T12:50:18.922Z,13.10
2019-05-28T12:52:38.969Z,12.90
2019-05-28T12:55:10.268Z,12.80
2019-05-28T12:57:39.063Z,12.70
2019-05-28T13:00:09.258Z,12.40
2019-05-28T13:02:37.989Z,12.20
2019-05-28T13:05:12.990Z,12.10
2019-05-28T13:07:41.699Z,12.20
2019-05-28T13:10:11.707Z,12.30
2019-05-28T13:12:40.435Z,12.50
2019-05-28T13:15:09.822Z,12.50
2019-05-28T13:17:38.538Z,12.60
2019-05-28T13:20:07.890Z,13.00
2019-05-28T13:22:36.664Z,13.40
2019-05-28T13:25:07.685Z,13.70
2019-05-28T13:27:36.394Z,14.00
2019-05-28T13:30:11.230Z,14.60
2019-05-28T13:32:40.776Z,15.20
2019-05-28T13:35:10.568Z,15.60
2019-05-28T13:37:39.668Z,16.10
2019-05-28T13:40:10.123Z,16.60
2019-05-28T13:42:38.890Z,16.60
2019-05-28T13:45:08.609Z,16.50
2019-05-28T13:47:37.382Z,16.40
2019-05-28T13:50:11.232Z,16.40
2019-05-28T13:52:39.944Z,16.30
2019-05-28T13:55:10.147Z,16.30
2019-05-28T13:57:39.677Z,16.50
2019-05-28T14:00:11.105Z,17.00
2019-05-28T14:02:45.007Z,16.90
2019-05-28T14:05:11.356Z,17.00
2019-05-28T14:07:40.055Z,16.90
2019-05-28T14:10:09.365Z,16.70
2019-05-28T14:12:38.077Z,16.40
2019-05-28T14:15:07.705Z,16.20
2019-05-28T14:17:36.396Z,16.30
2019-05-28T14:20:07.247Z,16.20
2019-05-28T14:22:36.606Z,15.60
2019-05-28T14:25:07.096Z,15.00
2019-05-28T14:27:35.917Z,14.70
2019-05-28T14:30:07.564Z,14.10
2019-05-28T14:32:36.279Z,13.80
2019-05-28T14:35:06.301Z,13.60
2019-05-28T14:37:35.014Z,13.50
2019-05-28T14:40:04.937Z,13.40
2019-05-28T14:42:33.662Z,13.40
2019-05-28T14:45:02.468Z,13.10
2019-05-28T14:47:31.185Z,13.40
2019-05-28T14:49:59.906Z,13.50
2019-05-28T14:52:28.623Z,14.10
2019-05-28T14:54:57.342Z,14.00
2019-05-28T14:57:26.052Z,14.30
2019-05-28T14:59:54.781Z,14.60
2019-05-28T15:02:23.487Z,14.70
2019-05-28T15:04:52.204Z,14.80
2019-05-28T15:07:20.905Z,14.20
2019-05-28T15:09:49.609Z,14.10
2019-05-28T15:12:18.318Z,13.80
2019-05-28T15:14:47.029Z,13.50
2019-05-28T15:17:15.730Z,13.40
2019-05-28T15:19:44.453Z,13.30
2019-05-28T15:22:13.163Z,13.20
2019-05-28T15:24:41.869Z,13.10
2019-05-28T15:27:10.572Z,13.40
2019-05-28T15:29:39.311Z,13.50
2019-05-28T15:32:08.025Z,13.60
2019-05-28T15:34:36.735Z,13.50
2019-05-28T15:37:05.465Z,13.40
2019-05-28T15:39:39.522Z,13.50
2019-05-28T15:42:04.798Z,13.40
2019-05-28T15:44:33.495Z,13.50
2019-05-28T15:47:02.209Z,13.50
2019-05-28T15:49:30.965Z,13.60
2019-05-28T15:52:07.760Z,13.30
2019-05-28T15:54:29.991Z,12.90
2019-05-28T15:56:58.689Z,12.80
2019-05-28T15:59:27.406Z,12.50
2019-05-28T16:01:56.109Z,12.10
2019-05-28T16:04:24.817Z,11.80
2019-05-28T16:06:53.516Z,11.70
2019-05-28T16:09:22.282Z,11.50
2019-05-28T16:11:50.992Z,11.50
2019-05-28T16:14:19.684Z,11.60
2019-05-28T16:16:48.405Z,11.70
2019-05-28T16:19:17.124Z,11.80
2019-05-28T16:21:45.817Z,11.80
2019-05-28T16:24:14.535Z,11.80
2019-05-28T16:26:43.239Z,11.60
2019-05-28T16:29:11.975Z,11.50
2019-05-28T16:31:40.685Z,11.30
2019-05-28T16:34:09.393Z,11.10
2019-05-28T16:36:38.100Z,11.00
2019-05-28T16:39:09.191Z,10.90
2019-05-28T16:41:37.904Z,10.80
2019-05-28T16:44:07.043Z,10.80
2019-05-28T16:46:35.769Z,10.80
2019-05-28T16:49:04.848Z,10.80
2019-05-28T16:51:33.565Z,10.80
2019-05-28T16:54:18.182Z,10.80
2019-05-28T16:56:32.613Z,10.80
2019-05-28T16:59:01.361Z,10.80
2019-05-28T17:01:30.059Z,10.80
2019-05-28T17:03:58.757Z,10.80
2019-05-28T17:06:27.483Z,10.70
2019-05-28T17:08:56.179Z,10.70
2019-05-28T17:11:27.575Z,10.70
2019-05-28T17:13:55.291Z,10.80
2019-05-28T17:16:23.962Z,10.80
2019-05-28T17:18:52.662Z,10.90
2019-05-28T17:21:23.108Z,11.00
2019-05-28T17:23:51.748Z,11.20
2019-05-28T17:26:20.470Z,11.20
2019-05-28T17:28:49.181Z,11.30
2019-05-28T17:31:17.889Z,11.30
2019-05-28T17:33:46.602Z,11.30
2019-05-28T17:36:15.381Z,11.30
2019-05-28T17:38:44.099Z,11.30
2019-05-28T17:41:12.822Z,11.20
2019-05-28T17:43:41.514Z,11.10
2019-05-28T17:46:10.317Z,11.10
2019-05-28T17:48:39.013Z,11.10
2019-05-28T17:51:07.741Z,11.00
2019-05-28T17:53:36.450Z,11.10
2019-05-28T17:56:07.929Z,11.20
2019-05-28T17:58:35.592Z,11.20
2019-05-28T18:01:04.294Z,11.30
2019-05-28T18:03:35.250Z,11.30
2019-05-28T18:06:03.468Z,11.40
2019-05-28T18:08:32.177Z,11.50
2019-05-28T18:11:04.266Z,11.60
2019-05-28T18:13:31.333Z,11.60
2019-05-28T18:16:00.041Z,11.50
2019-05-28T18:18:28.747Z,11.50
2019-05-28T18:20:57.453Z,11.40
2019-05-28T18:23:26.169Z,11.30
2019-05-28T18:25:54.878Z,11.30
2019-05-28T18:28:23.664Z,11.20
2019-05-28T18:30:52.371Z,11.30
2019-05-28T18:33:21.093Z,11.30
2019-05-28T18:35:49.802Z,11.30
2019-05-28T18:38:18.499Z,11.30
2019-05-28T18:40:47.287Z,11.30
2019-05-28T18:43:15.994Z,11.20
2019-05-28T18:45:44.701Z,11.10
2019-05-28T18:48:13.422Z,11.00
2019-05-28T18:50:42.135Z,10.80
2019-05-28T18:53:10.854Z,10.80
2019-05-28T18:55:39.557Z,10.70
2019-05-28T18:58:08.353Z,10.70
2019-05-28T19:00:37.241Z,10.70
2019-05-28T19:03:05.953Z,10.50
2019-05-28T19:05:34.664Z,10.50
2019-05-28T19:08:03.358Z,10.50
2019-05-28T19:10:32.149Z,10.50
2019-05-28T19:13:00.859Z,10.50
2019-05-28T19:15:29.558Z,10.40
2019-05-28T19:17:58.279Z,10.50
2019-05-28T19:20:26.978Z,10.40
2019-05-28T19:22:55.697Z,10.40
2019-05-28T19:25:24.494Z,10.30
2019-05-28T19:27:53.193Z,10.30
2019-05-28T19:30:33.250Z,10.20
2019-05-28T19:33:03.156Z,10.20
2019-05-28T19:35:31.854Z,10.10
2019-05-28T19:38:00.570Z,10.10
2019-05-28T19:40:34.910Z,10.00
2019-05-28T19:43:04.316Z,10.00
2019-05-28T19:45:33.118Z,9.90
2019-05-28T19:48:01.822Z,9.80
2019-05-28T19:50:30.531Z,9.80
2019-05-28T19:52:59.241Z,9.80
2019-05-28T19:55:27.933Z,9.70
2019-05-28T19:57:56.632Z,9.60
2019-05-28T20:00:25.463Z,9.60
2019-05-28T20:02:54.153Z,9.50
2019-05-28T20:05:22.889Z,9.50
2019-05-28T20:07:51.608Z,9.40
2019-05-28T20:10:20.397Z,9.40
2019-05-28T20:12:49.110Z,9.40
2019-05-28T20:15:19.994Z,9.40
2019-05-28T20:17:48.698Z,9.30
2019-05-28T20:20:17.617Z,9.30
2019-05-28T20:22:46.319Z,9.30
2019-05-28T20:25:15.617Z,9.30
2019-05-28T20:27:45.637Z,9.20
2019-05-28T20:30:16.722Z,9.20
2019-05-28T20:32:45.423Z,9.20
2019-05-28T20:35:14.119Z,9.20
2019-05-28T20:37:42.827Z,9.20
2019-05-28T20:40:12.234Z,9.10
2019-05-28T20:42:40.947Z,9.10
2019-05-28T20:45:12.143Z,9.10
2019-05-28T20:47:41.013Z,9.00
2019-05-28T20:50:11.501Z,9.00
2019-05-28T20:52:40.547Z,8.90
2019-05-28T20:55:10.428Z,8.90
2019-05-28T20:57:39.128Z,8.90
2019-05-28T21:00:10.915Z,8.90
2019-05-28T21:02:39.706Z,8.80
2019-05-28T21:05:08.581Z,8.80
2019-05-28T21:07:37.294Z,8.80
2019-05-28T21:10:07.897Z,8.90
2019-05-28T21:12:43.760Z,8.80
2019-05-28T21:15:11.274Z,8.80
2019-05-28T21:17:39.976Z,8.70
2019-05-28T21:20:10.481Z,8.60
2019-05-28T21:22:39.181Z,8.60
2019-05-28T21:25:08.292Z,8.50
2019-05-28T21:27:37.016Z,8.50
2019-05-28T21:30:07.928Z,8.50
2019-05-28T21:32:36.632Z,8.50
2019-05-28T21:35:06.545Z,8.70
2019-05-28T21:37:35.244Z,8.80
2019-05-28T21:40:05.262Z,8.80
2019-05-28T21:42:34.160Z,8.90
2019-05-28T21:45:02.873Z,8.90
2019-05-28T21:47:31.570Z,8.90
2019-05-28T21:50:01.024Z,9.00
2019-05-28T21:52:30.686Z,9.20
2019-05-28T21:54:59.401Z,9.20
2019-05-28T21:57:28.097Z,9.20
2019-05-28T21:59:57.862Z,9.20
2019-05-28T22:02:26.721Z,9.20
2019-05-28T22:04:55.499Z,9.20
2019-05-28T22:07:24.270Z,9.20
2019-05-28T22:09:53.039Z,9.10
2019-05-28T22:12:21.822Z,9.10
2019-05-28T22:14:50.590Z,9.00
2019-05-28T22:17:19.369Z,9.10
2019-05-28T22:19:48.189Z,9.00
2019-05-28T22:22:16.960Z,9.10
2019-05-28T22:24:45.795Z,9.10
2019-05-28T22:27:14.520Z,9.00
2019-05-28T22:29:43.298Z,8.90
2019-05-28T22:32:12.087Z,8.90
2019-05-28T22:34:40.856Z,8.90
2019-05-28T22:37:09.648Z,8.90
2019-05-28T22:39:38.417Z,8.80
2019-05-28T22:42:07.966Z,8.80
2019-05-28T22:44:36.791Z,8.80
2019-05-28T22:47:05.561Z,8.80
2019-05-28T22:49:34.356Z,8.70
2019-05-28T22:52:03.927Z,8.70
2019-05-28T22:54:32.792Z,8.70
2019-05-28T22:57:03.256Z,8.70
2019-05-28T22:59:32.035Z,8.70
2019-05-28T23:02:00.950Z,8.70
2019-05-28T23:04:29.749Z,8.70
2019-05-28T23:06:59.171Z,8.60
2019-05-28T23:09:27.971Z,8.60
2019-05-28T23:11:56.679Z,8.50
2019-05-28T23:14:25.378Z,8.50
2019-05-28T23:16:54.157Z,8.40
2019-05-28T23:19:22.944Z,8.30
2019-05-28T23:21:51.662Z,8.30
2019-05-28T23:24:20.372Z,8.40
2019-05-28T23:26:49.161Z,8.40
2019-05-28T23:29:17.936Z,8.40
2019-05-28T23:31:46.641Z,8.40
2019-05-28T23:34:15.350Z,8.40
2019-05-28T23:36:44.045Z,8.40
2019-05-28T23:39:13.216Z,8.40
2019-05-28T23:41:42.060Z,8.50
2019-05-28T23:44:11.662Z,8.50
2019-05-28T23:46:40.497Z,8.50
2019-05-28T23:49:10.169Z,8.50
2019-05-28T23:51:38.979Z,8.50
2019-05-28T23:54:07.741Z,8.50
2019-05-28T23:56:36.391Z,8.60
2019-05-28T23:59:05.669Z,8.60
